createdAt,value
2022-08-07T00:00:39.996Z,93.70
2022-08-07T00:01:44.206Z,93.70
2022-08-07T00:02:44.485Z,94.04
2022-08-07T00:03:37.643Z,93.84
2022-08-07T00:04:37.687Z,93.63
2022-08-07T00:05:37.627Z,93.39
2022-08-07T00:06:51.162Z,93.08
2022-08-07T00:07:40.410Z,92.99
2022-08-07T00:08:37.570Z,93.08
2022-08-07T00:09:37.589Z,93.08
2022-08-07T00:10:47.755Z,92.99
2022-08-07T00:11:47.770Z,92.99
2022-08-07T00:12:57.838Z,92.88
2022-08-07T00:13:37.554Z,92.79
2022-08-07T00:14:37.521Z,92.79
2022-08-07T00:15:46.457Z,92.58
2022-08-07T00:16:37.506Z,92.48
2022-08-07T00:17:37.505Z,92.28
2022-08-07T00:18:37.503Z,92.38
2022-08-07T00:20:01.524Z,92.48
2022-08-07T00:20:37.525Z,92.38
2022-08-07T00:21:56.148Z,92.48
2022-08-07T00:22:37.459Z,92.28
2022-08-07T00:23:37.459Z,92.38
2022-08-07T00:24:37.433Z,92.28
2022-08-07T00:25:41.493Z,92.48
2022-08-07T00:26:49.389Z,92.68
2022-08-07T00:27:52.832Z,92.79
2022-08-07T00:28:45.548Z,92.79
2022-08-07T00:29:37.394Z,93.49
2022-08-07T00:30:37.379Z,93.49
2022-08-07T00:31:42.198Z,93.08
2022-08-07T00:32:37.372Z,93.29
2022-08-07T00:33:37.375Z,93.19
2022-08-07T00:34:37.352Z,93.39
2022-08-07T00:35:37.340Z,93.59
2022-08-07T00:36:38.404Z,93.49
2022-08-07T00:37:47.722Z,93.39
2022-08-07T00:38:37.335Z,93.59
2022-08-07T00:39:37.392Z,93.70
2022-08-07T00:40:39.339Z,93.74
2022-08-07T00:41:53.090Z,93.84
2022-08-07T00:42:37.287Z,93.63
2022-08-07T00:43:59.590Z,93.94
2022-08-07T00:44:38.290Z,93.63
2022-08-07T00:45:37.254Z,93.59
2022-08-07T00:46:37.251Z,93.59
2022-08-07T00:48:08.089Z,93.79
2022-08-07T00:48:37.230Z,93.59
2022-08-07T00:50:19.186Z,94.10
2022-08-07T00:50:46.715Z,94.20
2022-08-07T00:51:56.730Z,94.04
2022-08-07T00:52:37.196Z,94.24
2022-08-07T00:53:38.441Z,94.24
2022-08-07T00:54:37.194Z,93.94
2022-08-07T00:56:00.829Z,94.24
2022-08-07T00:56:37.163Z,94.55
2022-08-07T00:57:37.186Z,94.45
2022-08-07T00:58:37.169Z,94.10
2022-08-07T00:59:37.127Z,94.10
2022-08-07T01:00:37.126Z,94.20
2022-08-07T01:01:43.975Z,93.90
2022-08-07T01:02:37.114Z,93.79
2022-08-07T01:03:56.343Z,93.90
2022-08-07T01:04:43.339Z,93.79
2022-08-07T01:05:37.091Z,94.20
2022-08-07T01:06:37.088Z,93.79
2022-08-07T01:07:37.057Z,93.79
2022-08-07T01:08:37.068Z,93.79
2022-08-07T01:10:06.472Z,93.90
2022-08-07T01:10:37.053Z,93.90
2022-08-07T01:12:09.179Z,93.90
2022-08-07T01:12:37.039Z,93.70
2022-08-07T01:13:37.006Z,94.00
2022-08-07T01:14:37.293Z,94.00
2022-08-07T01:16:05.671Z,94.20
2022-08-07T01:16:37.135Z,94.10
2022-08-07T01:17:36.997Z,94.00
2022-08-07T01:18:36.973Z,93.70
2022-08-07T01:19:38.376Z,93.59
2022-08-07T01:20:42.961Z,93.59
2022-08-07T01:21:37.038Z,94.20
2022-08-07T01:22:36.938Z,93.79
2022-08-07T01:23:38.841Z,93.70
2022-08-07T01:24:36.915Z,93.90
2022-08-07T01:25:54.642Z,93.90
2022-08-07T01:26:36.908Z,93.90
2022-08-07T01:27:37.367Z,93.79
2022-08-07T01:28:36.885Z,93.70
2022-08-07T01:29:36.875Z,94.00
2022-08-07T01:30:36.893Z,94.60
2022-08-07T01:31:41.588Z,94.20
2022-08-07T01:32:36.856Z,94.20
2022-08-07T01:33:55.211Z,93.90
2022-08-07T01:34:36.834Z,94.00
2022-08-07T01:35:53.082Z,94.20
2022-08-07T01:36:40.390Z,94.40
2022-08-07T01:37:36.801Z,94.30
2022-08-07T01:38:36.797Z,94.60
2022-08-07T01:39:40.630Z,94.91
2022-08-07T01:40:36.778Z,94.40
2022-08-07T01:41:36.779Z,94.30
2022-08-07T01:42:57.159Z,94.40
2022-08-07T01:43:38.520Z,94.50
2022-08-07T01:44:36.743Z,94.40
2022-08-07T01:45:39.947Z,94.56
2022-08-07T01:46:36.739Z,94.36
2022-08-07T01:48:20.199Z,94.15
2022-08-07T01:48:40.970Z,94.36
2022-08-07T01:49:36.744Z,94.36
2022-08-07T01:50:36.690Z,94.20
2022-08-07T01:52:03.276Z,94.40
2022-08-07T01:52:36.671Z,94.40
2022-08-07T01:54:12.497Z,94.40
2022-08-07T01:54:37.490Z,94.50
2022-08-07T01:55:36.699Z,94.50
2022-08-07T01:56:36.646Z,94.60
2022-08-07T01:58:01.191Z,94.71
2022-08-07T01:58:37.621Z,95.01
2022-08-07T01:59:36.627Z,95.21
2022-08-07T02:00:45.250Z,95.21
2022-08-07T02:01:59.897Z,94.91
2022-08-07T02:03:11.997Z,94.81
2022-08-07T02:03:48.598Z,94.91
2022-08-07T02:04:36.569Z,94.81
2022-08-07T02:05:48.003Z,95.21
2022-08-07T02:06:36.546Z,95.11
2022-08-07T02:07:49.881Z,95.11
2022-08-07T02:08:36.547Z,94.81
2022-08-07T02:09:52.600Z,95.01
2022-08-07T02:10:36.562Z,94.81
2022-08-07T02:12:02.955Z,94.91
2022-08-07T02:12:36.522Z,94.91
2022-08-07T02:13:58.245Z,94.81
2022-08-07T02:14:40.687Z,95.21
2022-08-07T02:15:36.458Z,94.81
2022-08-07T02:16:36.465Z,94.71
2022-08-07T02:17:36.442Z,94.81
2022-08-07T02:18:36.463Z,94.81
2022-08-07T02:20:06.494Z,94.71
2022-08-07T02:20:36.465Z,94.71
2022-08-07T02:21:56.740Z,94.50
2022-08-07T02:22:40.998Z,94.81
2022-08-07T02:23:36.410Z,94.91
2022-08-07T02:24:36.389Z,94.71
2022-08-07T02:26:31.509Z,94.50
2022-08-07T02:26:38.857Z,94.30
2022-08-07T02:27:36.355Z,94.40
2022-08-07T02:28:36.363Z,94.71
2022-08-07T02:29:36.898Z,94.50
2022-08-07T02:30:36.340Z,94.26
2022-08-07T02:31:36.319Z,94.06
2022-08-07T02:32:36.326Z,94.76
2022-08-07T02:34:01.896Z,94.76
2022-08-07T02:34:36.301Z,94.56
2022-08-07T02:36:28.415Z,94.46
2022-08-07T02:36:36.479Z,94.81
2022-08-07T02:37:36.439Z,94.60
2022-08-07T02:38:36.279Z,95.21
2022-08-07T02:39:43.702Z,95.01
2022-08-07T02:40:36.320Z,95.01
2022-08-07T02:41:37.079Z,95.11
2022-08-07T02:42:36.230Z,95.31
2022-08-07T02:43:36.242Z,95.21
2022-08-07T02:44:36.530Z,95.11
2022-08-07T02:46:00.320Z,95.11
2022-08-07T02:46:36.847Z,95.11
2022-08-07T02:47:49.042Z,95.01
2022-08-07T02:48:36.182Z,95.01
2022-08-07T02:49:58.676Z,95.11
2022-08-07T02:50:36.163Z,95.31
2022-08-07T02:51:42.396Z,95.21
2022-08-07T02:52:36.146Z,95.31
2022-08-07T02:53:38.609Z,95.92
2022-08-07T02:54:36.126Z,95.82
2022-08-07T02:56:03.291Z,95.51
2022-08-07T02:56:36.119Z,95.62
2022-08-07T02:57:36.142Z,95.51
2022-08-07T02:58:36.129Z,95.62
2022-08-07T02:59:36.069Z,95.42
2022-08-07T03:00:36.139Z,95.11
2022-08-07T03:01:40.014Z,95.11
2022-08-07T03:02:36.050Z,95.11
2022-08-07T03:03:49.459Z,95.31
2022-08-07T03:04:36.058Z,95.11
2022-08-07T03:05:37.110Z,95.21
2022-08-07T03:06:36.014Z,95.11
2022-08-07T03:08:05.085Z,95.21
2022-08-07T03:08:36.067Z,95.21
2022-08-07T03:09:42.386Z,95.21
2022-08-07T03:10:35.988Z,95.11
2022-08-07T03:11:38.974Z,95.21
2022-08-07T03:12:35.991Z,95.07
2022-08-07T03:13:38.900Z,95.07
2022-08-07T03:14:35.995Z,95.07
2022-08-07T03:15:47.774Z,95.07
2022-08-07T03:16:35.939Z,94.86
2022-08-07T03:17:52.743Z,94.76
2022-08-07T03:18:36.178Z,94.86
2022-08-07T03:19:37.025Z,94.86
2022-08-07T03:20:35.895Z,94.96
2022-08-07T03:21:35.877Z,94.56
2022-08-07T03:22:35.881Z,94.56
2022-08-07T03:24:17.619Z,94.26
2022-08-07T03:24:36.551Z,94.26
2022-08-07T03:25:40.406Z,94.26
2022-08-07T03:26:35.842Z,94.26
2022-08-07T03:27:59.359Z,94.26
2022-08-07T03:28:38.538Z,94.46
2022-08-07T03:29:37.367Z,94.46
2022-08-07T03:30:35.841Z,93.75
2022-08-07T03:31:43.516Z,94.26
2022-08-07T03:32:35.819Z,94.56
2022-08-07T03:33:40.157Z,94.66
2022-08-07T03:34:39.470Z,94.86
2022-08-07T03:35:43.738Z,94.86
2022-08-07T03:36:35.781Z,94.56
2022-08-07T03:37:45.917Z,94.56
2022-08-07T03:38:35.743Z,94.15
2022-08-07T03:39:45.973Z,94.06
2022-08-07T03:40:36.434Z,94.20
2022-08-07T03:41:42.410Z,94.06
2022-08-07T03:42:35.668Z,94.00
2022-08-07T03:43:35.972Z,93.85
2022-08-07T03:44:35.696Z,93.85
2022-08-07T03:45:39.576Z,93.95
2022-08-07T03:46:35.668Z,93.85
2022-08-07T03:47:45.104Z,93.85
2022-08-07T03:49:01.927Z,94.06
2022-08-07T03:49:35.596Z,94.06
2022-08-07T03:50:35.634Z,94.06
2022-08-07T03:51:46.998Z,94.06
2022-08-07T03:52:35.637Z,94.26
2022-08-07T03:54:33.224Z,94.76
2022-08-07T03:54:54.063Z,94.56
2022-08-07T03:55:58.109Z,94.15
2022-08-07T03:56:35.531Z,93.95
2022-08-07T03:58:34.045Z,93.65
2022-08-07T03:59:13.370Z,93.55
2022-08-07T03:59:35.517Z,94.06
2022-08-07T04:00:36.620Z,93.95
2022-08-07T04:01:36.989Z,93.65
2022-08-07T04:02:35.500Z,93.04
2022-08-07T04:03:49.560Z,92.94
2022-08-07T04:04:35.465Z,93.24
2022-08-07T04:05:40.259Z,93.44
2022-08-07T04:06:37.238Z,93.65
2022-08-07T04:07:41.830Z,93.95
2022-08-07T04:08:35.446Z,94.15
2022-08-07T04:09:44.860Z,93.55
2022-08-07T04:10:35.421Z,93.55
2022-08-07T04:12:21.369Z,93.55
2022-08-07T04:12:35.433Z,93.44
2022-08-07T04:14:10.138Z,93.65
2022-08-07T04:14:46.242Z,93.85
2022-08-07T04:15:35.368Z,93.44
2022-08-07T04:16:35.368Z,93.35
2022-08-07T04:18:30.770Z,93.04
2022-08-07T04:19:03.942Z,93.04
2022-08-07T04:19:51.996Z,92.54
2022-08-07T04:20:35.442Z,92.13
2022-08-07T04:21:35.316Z,92.33
2022-08-07T04:22:35.308Z,92.54
2022-08-07T04:23:43.471Z,92.44
2022-08-07T04:24:39.009Z,92.54
2022-08-07T04:25:39.047Z,92.44
2022-08-07T04:26:35.298Z,92.64
2022-08-07T04:27:44.259Z,92.74
2022-08-07T04:28:35.311Z,92.79
2022-08-07T04:29:48.909Z,92.74
2022-08-07T04:30:39.410Z,92.68
2022-08-07T04:31:39.134Z,92.58
2022-08-07T04:32:35.371Z,92.68
2022-08-07T04:33:35.366Z,92.38
2022-08-07T04:34:36.546Z,92.38
2022-08-07T04:35:35.726Z,92.28
2022-08-07T04:36:35.189Z,92.28
2022-08-07T04:37:52.892Z,92.28
2022-08-07T04:38:35.177Z,91.57
2022-08-07T04:39:35.787Z,91.57
2022-08-07T04:40:35.170Z,91.06
2022-08-07T04:41:36.825Z,90.76
2022-08-07T04:42:35.147Z,90.66
2022-08-07T04:44:10.648Z,90.76
2022-08-07T04:44:35.140Z,90.56
2022-08-07T04:46:00.295Z,90.96
2022-08-07T04:46:35.873Z,91.06
2022-08-07T04:48:00.902Z,91.06
2022-08-07T04:48:35.084Z,91.37
2022-08-07T04:49:37.795Z,90.56
2022-08-07T04:50:35.062Z,90.66
2022-08-07T04:51:35.053Z,90.45
2022-08-07T04:52:35.079Z,90.66
2022-08-07T04:54:01.771Z,90.45
2022-08-07T04:54:35.050Z,90.45
2022-08-07T04:58:24.426Z,90.76
2022-08-07T05:00:09.949Z,89.20
2022-08-07T05:00:31.099Z,89.81
2022-08-07T05:01:01.625Z,89.10
2022-08-07T05:02:01.575Z,89.10
2022-08-07T05:03:01.558Z,89.10
2022-08-07T05:04:07.674Z,87.79
2022-08-07T05:05:01.538Z,87.88
2022-08-07T05:06:01.546Z,88.29
2022-08-07T05:07:09.625Z,88.29
2022-08-07T05:08:01.517Z,88.90
2022-08-07T05:09:02.475Z,89.20
2022-08-07T05:10:01.490Z,88.39
2022-08-07T05:11:02.594Z,87.58
2022-08-07T05:12:02.604Z,87.18
2022-08-07T05:14:44.487Z,87.48
2022-08-07T05:15:03.440Z,88.19
2022-08-07T05:15:09.583Z,87.68
2022-08-07T05:16:07.838Z,87.79
2022-08-07T05:17:11.887Z,87.99
2022-08-07T05:18:08.853Z,88.19
2022-08-07T05:19:07.811Z,88.53
2022-08-07T05:20:09.805Z,88.53
2022-08-07T05:21:07.796Z,88.84
2022-08-07T05:22:07.787Z,88.13
2022-08-07T05:23:15.730Z,88.13
2022-08-07T05:24:07.760Z,88.13
2022-08-07T05:25:08.758Z,88.23
2022-08-07T05:26:13.625Z,87.93
2022-08-07T05:27:07.753Z,87.93
2022-08-07T05:28:20.589Z,88.43
2022-08-07T05:29:07.719Z,88.43
2022-08-07T05:30:07.698Z,88.84
2022-08-07T05:31:07.728Z,88.74
2022-08-07T05:32:07.684Z,88.13
2022-08-07T05:33:07.672Z,88.13
2022-08-07T05:34:10.732Z,87.93
2022-08-07T05:35:07.665Z,88.02
2022-08-07T05:36:07.653Z,88.13
2022-08-07T05:37:07.655Z,88.13
2022-08-07T05:38:08.332Z,89.04
2022-08-07T05:40:05.863Z,88.53
2022-08-07T05:40:20.588Z,88.33
2022-08-07T05:41:14.234Z,88.84
2022-08-07T05:42:12.408Z,88.74
2022-08-07T05:43:10.591Z,88.64
2022-08-07T05:44:12.673Z,88.74
2022-08-07T05:45:25.963Z,88.84
2022-08-07T05:46:07.588Z,88.74
2022-08-07T05:47:17.833Z,89.24
2022-08-07T05:48:07.867Z,88.43
2022-08-07T05:49:11.814Z,88.13
2022-08-07T05:50:07.529Z,88.64
2022-08-07T05:51:07.519Z,88.09
2022-08-07T05:52:07.527Z,87.58
2022-08-07T05:53:07.503Z,87.48
2022-08-07T05:54:30.583Z,87.68
2022-08-07T05:55:10.996Z,87.48
2022-08-07T05:56:07.472Z,87.58
2022-08-07T05:57:07.462Z,87.48
2022-08-07T05:58:07.481Z,87.48
2022-08-07T05:59:07.449Z,87.68
2022-08-07T06:00:07.435Z,87.79
2022-08-07T06:01:10.839Z,88.23
2022-08-07T06:02:07.467Z,88.64
2022-08-07T06:03:07.446Z,89.24
2022-08-07T06:04:07.399Z,88.74
2022-08-07T06:05:07.429Z,88.74
2022-08-07T06:06:07.385Z,88.84
2022-08-07T06:07:07.379Z,88.64
2022-08-07T06:08:30.316Z,88.43
2022-08-07T06:09:07.362Z,88.33
2022-08-07T06:10:11.320Z,88.43
2022-08-07T06:11:07.351Z,88.64
2022-08-07T06:12:07.367Z,88.33
2022-08-07T06:13:07.338Z,87.82
2022-08-07T06:14:12.719Z,87.82
2022-08-07T06:15:07.330Z,88.02
2022-08-07T06:16:07.291Z,88.33
2022-08-07T06:17:07.519Z,88.23
2022-08-07T06:18:07.351Z,88.33
2022-08-07T06:19:07.272Z,88.53
2022-08-07T06:20:12.383Z,88.33
2022-08-07T06:22:14.300Z,88.13
2022-08-07T06:22:27.383Z,88.13
2022-08-07T06:23:46.826Z,88.02
2022-08-07T06:24:55.604Z,87.88
2022-08-07T06:25:10.275Z,88.29
2022-08-07T06:26:07.206Z,87.48
2022-08-07T06:27:07.192Z,87.58
2022-08-07T06:28:07.515Z,87.58
2022-08-07T06:29:07.176Z,87.08
2022-08-07T06:30:07.159Z,86.98
2022-08-07T06:31:07.196Z,86.77
2022-08-07T06:32:07.171Z,87.04
2022-08-07T06:33:15.626Z,86.83
2022-08-07T06:34:07.147Z,87.44
2022-08-07T06:35:17.766Z,86.83
2022-08-07T06:36:13.989Z,87.04
2022-08-07T06:37:07.111Z,86.93
2022-08-07T06:38:08.301Z,86.53
2022-08-07T06:40:15.722Z,87.04
2022-08-07T06:40:24.669Z,87.13
2022-08-07T06:41:07.177Z,87.13
2022-08-07T06:42:07.136Z,86.63
2022-08-07T06:43:07.251Z,86.73
2022-08-07T06:44:10.849Z,86.73
2022-08-07T06:45:07.034Z,86.63
2022-08-07T06:46:11.605Z,86.02
2022-08-07T06:47:12.181Z,85.93
2022-08-07T06:48:07.016Z,85.52
2022-08-07T06:49:07.010Z,85.52
2022-08-07T06:50:07.056Z,85.82
2022-08-07T06:51:08.201Z,85.93
2022-08-07T06:52:07.563Z,85.52
2022-08-07T06:53:06.963Z,85.48
2022-08-07T06:55:34.503Z,85.48
2022-08-07T06:56:01.431Z,85.38
2022-08-07T06:56:07.495Z,85.48
2022-08-07T06:57:07.075Z,85.58
2022-08-07T06:58:10.222Z,84.97
2022-08-07T07:00:13.121Z,85.38
2022-08-07T07:00:21.591Z,85.38
2022-08-07T07:01:07.107Z,85.17
2022-08-07T07:02:07.113Z,84.77
2022-08-07T07:03:10.928Z,84.87
2022-08-07T07:04:28.221Z,85.38
2022-08-07T07:05:07.018Z,84.87
2022-08-07T07:06:11.499Z,84.23
2022-08-07T07:07:10.811Z,84.03
2022-08-07T07:08:10.045Z,84.27
2022-08-07T07:09:06.971Z,84.57
2022-08-07T07:10:06.966Z,84.77
2022-08-07T07:11:14.129Z,84.97
2022-08-07T07:12:15.616Z,85.38
2022-08-07T07:13:06.936Z,84.87
2022-08-07T07:14:08.263Z,85.48
2022-08-07T07:15:08.658Z,85.28
2022-08-07T07:16:06.899Z,85.48
2022-08-07T07:17:06.891Z,85.38
2022-08-07T07:18:06.889Z,85.78
2022-08-07T07:19:54.806Z,85.58
2022-08-07T07:20:06.888Z,85.08
2022-08-07T07:21:13.553Z,85.99
2022-08-07T07:22:33.798Z,85.88
2022-08-07T07:24:08.821Z,85.88
2022-08-07T07:24:16.688Z,85.78
2022-08-07T07:26:31.224Z,85.58
2022-08-07T07:26:40.703Z,86.49
2022-08-07T07:27:06.851Z,86.08
2022-08-07T07:28:29.487Z,86.59
2022-08-07T07:29:39.792Z,86.39
2022-08-07T07:30:09.979Z,86.08
2022-08-07T07:31:07.062Z,86.59
2022-08-07T07:32:06.766Z,85.99
2022-08-07T07:33:06.750Z,86.08
2022-08-07T07:34:06.738Z,86.08
2022-08-07T07:35:06.732Z,85.78
2022-08-07T07:36:13.094Z,85.78
2022-08-07T07:37:22.046Z,86.08
2022-08-07T07:38:06.987Z,86.08
2022-08-07T07:39:06.754Z,85.38
2022-08-07T07:40:10.366Z,86.29
2022-08-07T07:41:08.735Z,85.74
2022-08-07T07:42:13.760Z,86.25
2022-08-07T07:43:15.099Z,85.74
2022-08-07T07:44:16.949Z,86.35
2022-08-07T07:45:06.661Z,85.94
2022-08-07T07:46:40.593Z,86.25
2022-08-07T07:47:16.035Z,86.65
2022-08-07T07:48:06.639Z,86.45
2022-08-07T07:50:15.872Z,86.55
2022-08-07T07:50:40.379Z,86.25
2022-08-07T07:51:08.032Z,85.84
2022-08-07T07:52:06.580Z,86.25
2022-08-07T07:53:13.692Z,86.04
2022-08-07T07:54:06.598Z,86.04
2022-08-07T07:55:06.558Z,85.84
2022-08-07T07:56:06.545Z,86.04
2022-08-07T07:57:06.567Z,85.94
2022-08-07T07:58:06.523Z,86.25
2022-08-07T07:59:06.545Z,86.25
2022-08-07T08:00:06.523Z,86.15
2022-08-07T08:02:01.812Z,86.45
2022-08-07T08:02:10.707Z,86.04
2022-08-07T08:03:08.411Z,85.74
2022-08-07T08:04:11.268Z,86.15
2022-08-07T08:05:14.260Z,85.64
2022-08-07T08:06:06.472Z,85.64
2022-08-07T08:07:07.729Z,86.04
2022-08-07T08:08:06.433Z,86.15
2022-08-07T08:09:06.483Z,86.04
2022-08-07T08:10:06.426Z,86.55
2022-08-07T08:11:08.645Z,86.45
2022-08-07T08:12:06.421Z,86.25
2022-08-07T08:13:06.397Z,85.94
2022-08-07T08:14:06.398Z,85.74
2022-08-07T08:15:06.877Z,85.64
2022-08-07T08:16:06.365Z,85.94
2022-08-07T08:17:55.655Z,86.04
2022-08-07T08:18:17.429Z,86.04
2022-08-07T08:19:17.238Z,86.35
2022-08-07T08:20:22.317Z,86.45
2022-08-07T08:21:07.606Z,86.35
2022-08-07T08:22:06.311Z,86.41
2022-08-07T08:23:08.162Z,86.10
2022-08-07T08:24:06.307Z,86.00
2022-08-07T08:25:25.056Z,85.60
2022-08-07T08:26:07.289Z,85.19
2022-08-07T08:27:09.555Z,85.40
2022-08-07T08:28:06.267Z,85.30
2022-08-07T08:29:06.275Z,84.99
2022-08-07T08:30:06.245Z,84.55
2022-08-07T08:31:06.235Z,84.15
2022-08-07T08:32:17.826Z,84.55
2022-08-07T08:33:15.138Z,84.75
2022-08-07T08:34:06.273Z,84.45
2022-08-07T08:35:06.220Z,84.15
2022-08-07T08:36:13.756Z,84.65
2022-08-07T08:37:09.997Z,84.35
2022-08-07T08:38:06.305Z,84.35
2022-08-07T08:39:06.517Z,84.95
2022-08-07T08:40:06.201Z,84.75
2022-08-07T08:41:06.156Z,84.75
2022-08-07T08:42:06.162Z,85.25
2022-08-07T08:43:06.132Z,84.95
2022-08-07T08:44:06.191Z,84.59
2022-08-07T08:45:06.146Z,84.25
2022-08-07T08:46:06.109Z,84.15
2022-08-07T08:47:06.121Z,84.15
2022-08-07T08:48:06.194Z,84.85
2022-08-07T08:49:06.075Z,84.05
2022-08-07T08:50:06.231Z,84.25
2022-08-07T08:51:14.721Z,84.75
2022-08-07T08:52:14.009Z,84.95
2022-08-07T08:53:06.048Z,84.85
2022-08-07T08:54:06.077Z,85.16
2022-08-07T08:55:07.891Z,85.60
2022-08-07T08:56:06.011Z,85.30
2022-08-07T08:57:06.013Z,86.10
2022-08-07T08:58:06.014Z,85.70
2022-08-07T08:59:06.658Z,84.95
2022-08-07T09:00:06.006Z,84.65
2022-08-07T09:01:15.179Z,84.65
2022-08-07T09:02:08.929Z,84.55
2022-08-07T09:03:07.673Z,84.85
2022-08-07T09:04:15.331Z,84.51
2022-08-07T09:05:05.945Z,83.20
2022-08-07T09:06:05.928Z,82.90
2022-08-07T09:07:05.923Z,82.90
2022-08-07T09:08:05.908Z,82.39
2022-08-07T09:09:13.378Z,81.85
2022-08-07T09:10:05.905Z,82.09
2022-08-07T09:11:05.897Z,82.76
2022-08-07T09:12:30.644Z,82.96
2022-08-07T09:13:05.884Z,82.86
2022-08-07T09:14:05.862Z,82.56
2022-08-07T09:16:20.631Z,83.06
2022-08-07T09:16:30.419Z,82.76
2022-08-07T09:17:05.829Z,83.06
2022-08-07T09:18:11.424Z,82.56
2022-08-07T09:19:27.119Z,83.06
2022-08-07T09:20:09.442Z,82.96
2022-08-07T09:21:05.806Z,82.76
2022-08-07T09:22:22.991Z,82.71
2022-08-07T09:24:55.457Z,82.92
2022-08-07T09:25:11.892Z,82.92
2022-08-07T09:25:44.443Z,82.21
2022-08-07T09:26:47.704Z,82.21
2022-08-07T09:27:59.832Z,81.61
2022-08-07T09:30:05.813Z,81.41
2022-08-07T09:30:12.727Z,81.61
2022-08-07T09:30:46.433Z,81.10
2022-08-07T09:31:48.667Z,81.81
2022-08-07T09:32:44.372Z,81.61
2022-08-07T09:33:57.538Z,81.41
2022-08-07T09:34:44.357Z,81.10
2022-08-07T09:36:03.404Z,81.21
2022-08-07T09:36:49.537Z,81.30
2022-08-07T09:37:48.329Z,81.30
2022-08-07T09:38:53.505Z,80.80
2022-08-07T09:39:54.115Z,81.01
2022-08-07T09:40:44.309Z,81.01
2022-08-07T09:41:59.094Z,81.37
2022-08-07T09:42:45.434Z,81.17
2022-08-07T09:44:06.470Z,81.27
2022-08-07T09:44:58.735Z,81.07
2022-08-07T09:47:49.623Z,80.77
2022-08-07T09:48:11.704Z,80.77
2022-08-07T09:48:19.079Z,80.32
2022-08-07T09:50:02.272Z,80.22
2022-08-07T09:50:18.895Z,79.42
2022-08-07T09:52:15.901Z,79.52
2022-08-07T09:52:38.005Z,80.32
2022-08-07T09:53:15.190Z,79.68
2022-08-07T09:54:16.420Z,79.88
2022-08-07T09:55:17.380Z,79.92
2022-08-07T09:56:19.873Z,79.11
2022-08-07T09:57:15.153Z,79.52
2022-08-07T09:58:15.173Z,79.11
2022-08-07T09:59:15.120Z,79.62
2022-08-07T10:00:15.118Z,79.62
2022-08-07T10:01:51.943Z,79.42
2022-08-07T10:02:15.380Z,80.73
2022-08-07T10:04:05.051Z,80.12
2022-08-07T10:04:16.943Z,79.99
2022-08-07T10:05:15.173Z,79.79
2022-08-07T10:06:17.416Z,79.14
2022-08-07T10:07:25.734Z,78.94
2022-08-07T10:08:15.105Z,78.94
2022-08-07T10:09:15.477Z,78.34
2022-08-07T10:10:15.072Z,78.44
2022-08-07T10:11:59.391Z,77.94
2022-08-07T10:12:21.389Z,77.94
2022-08-07T10:13:29.584Z,78.34
2022-08-07T10:14:15.017Z,78.44
2022-08-07T10:15:18.369Z,77.90
2022-08-07T10:16:14.972Z,78.00
2022-08-07T10:17:16.823Z,77.59
2022-08-07T10:18:15.062Z,77.80
2022-08-07T10:19:14.969Z,77.50
2022-08-07T10:20:14.961Z,77.29
2022-08-07T10:21:50.405Z,78.20
2022-08-07T10:22:17.434Z,77.59
2022-08-07T10:23:14.947Z,77.00
2022-08-07T10:24:18.641Z,76.29
2022-08-07T10:25:14.909Z,75.65
2022-08-07T10:26:14.909Z,76.05
2022-08-07T10:27:15.667Z,75.05
2022-08-07T10:28:14.933Z,74.95
2022-08-07T10:29:14.880Z,75.55
2022-08-07T10:30:14.915Z,76.15
2022-08-07T10:31:14.856Z,75.71
2022-08-07T10:32:36.447Z,75.92
2022-08-07T10:34:05.128Z,75.31
2022-08-07T10:34:18.505Z,74.68
2022-08-07T10:35:20.234Z,74.37
2022-08-07T10:36:14.867Z,74.34
2022-08-07T10:37:14.857Z,73.03
2022-08-07T10:38:36.168Z,73.13
2022-08-07T10:39:14.948Z,72.80
2022-08-07T10:40:14.946Z,72.70
2022-08-07T10:41:47.306Z,72.90
2022-08-07T10:42:20.794Z,72.60
2022-08-07T10:43:14.760Z,72.06
2022-08-07T10:44:14.762Z,72.47
2022-08-07T10:45:14.763Z,73.16
2022-08-07T10:46:14.817Z,72.06
2022-08-07T10:47:14.710Z,72.27
2022-08-07T10:48:14.743Z,71.96
2022-08-07T10:49:14.696Z,72.47
2022-08-07T10:50:15.190Z,71.06
2022-08-07T10:51:16.330Z,71.86
2022-08-07T10:52:14.672Z,71.23
2022-08-07T10:53:21.719Z,71.06
2022-08-07T10:54:14.654Z,72.43
2022-08-07T10:55:32.679Z,72.13
2022-08-07T10:56:31.065Z,71.43
2022-08-07T10:57:15.417Z,71.26
2022-08-07T10:58:14.614Z,71.16
2022-08-07T10:59:14.633Z,70.56
2022-08-07T11:02:12.543Z,72.16
2022-08-07T11:03:03.727Z,71.16
2022-08-07T11:04:16.454Z,71.46
2022-08-07T11:05:10.521Z,72.06
2022-08-07T11:06:04.997Z,71.86
2022-08-07T11:07:03.630Z,71.26
2022-08-07T11:08:03.848Z,70.66
2022-08-07T11:09:03.614Z,71.77
2022-08-07T11:10:07.390Z,71.16
2022-08-07T11:11:03.621Z,70.46
2022-08-07T11:12:03.593Z,72.06
2022-08-07T11:13:03.583Z,71.93
2022-08-07T11:14:57.249Z,71.12
2022-08-07T11:15:09.601Z,69.62
2022-08-07T11:16:03.564Z,70.53
2022-08-07T11:17:07.268Z,70.43
2022-08-07T11:18:04.554Z,70.79
2022-08-07T11:19:03.519Z,69.59
2022-08-07T11:20:03.600Z,70.79
2022-08-07T11:21:03.509Z,69.96
2022-08-07T11:22:03.543Z,70.56
2022-08-07T11:23:03.487Z,69.46
2022-08-07T11:24:03.486Z,69.26
2022-08-07T11:25:06.582Z,69.56
2022-08-07T11:26:06.273Z,69.96
2022-08-07T11:27:03.463Z,69.46
2022-08-07T11:28:04.090Z,68.66
2022-08-07T11:29:05.714Z,69.36
2022-08-07T11:30:17.663Z,68.46
2022-08-07T11:31:03.416Z,68.76
2022-08-07T11:32:07.957Z,69.36
2022-08-07T11:33:14.018Z,69.06
2022-08-07T11:34:03.386Z,68.09
2022-08-07T11:35:03.445Z,68.69
2022-08-07T11:36:06.912Z,69.23
2022-08-07T11:37:03.743Z,69.32
2022-08-07T11:38:12.363Z,69.82
2022-08-07T11:39:03.414Z,70.43
2022-08-07T11:40:03.789Z,69.82
2022-08-07T11:41:03.438Z,71.23
2022-08-07T11:42:03.472Z,71.43
2022-08-07T11:43:03.308Z,70.53
2022-08-07T11:44:12.048Z,71.12
2022-08-07T11:45:03.572Z,70.03
2022-08-07T11:46:03.309Z,70.83
2022-08-07T11:47:03.260Z,69.73
2022-08-07T11:48:06.119Z,70.23
2022-08-07T11:49:50.751Z,70.62
2022-08-07T11:50:35.386Z,70.93
2022-08-07T11:51:03.221Z,69.62
2022-08-07T11:52:03.221Z,69.66
2022-08-07T11:53:05.169Z,71.00
2022-08-07T11:54:09.773Z,71.50
2022-08-07T11:55:03.190Z,71.39
2022-08-07T11:56:09.480Z,71.20
2022-08-07T11:57:03.176Z,71.13
2022-08-07T11:58:03.310Z,71.73
2022-08-07T11:59:03.159Z,73.13
2022-08-07T12:00:10.778Z,73.24
2022-08-07T12:01:04.333Z,71.63
2022-08-07T12:02:03.195Z,72.83
2022-08-07T12:03:03.178Z,72.83
2022-08-07T12:04:03.125Z,73.13
2022-08-07T12:05:03.087Z,72.80
2022-08-07T12:06:03.103Z,72.90
2022-08-07T12:07:09.041Z,72.70
2022-08-07T12:08:03.627Z,72.50
2022-08-07T12:09:03.061Z,72.30
2022-08-07T12:10:05.831Z,71.30
2022-08-07T12:11:20.702Z,71.50
2022-08-07T12:12:09.122Z,71.30
2022-08-07T12:13:03.043Z,71.80
2022-08-07T12:14:03.052Z,72.09
2022-08-07T12:15:03.055Z,72.50
2022-08-07T12:16:06.705Z,71.70
2022-08-07T12:17:02.994Z,71.80
2022-08-07T12:18:08.074Z,71.90
2022-08-07T12:19:02.979Z,71.56
2022-08-07T12:20:09.460Z,71.50
2022-08-07T12:21:02.955Z,71.50
2022-08-07T12:22:39.401Z,71.26
2022-08-07T12:23:02.943Z,71.77
2022-08-07T12:24:06.633Z,71.26
2022-08-07T12:25:07.848Z,70.36
2022-08-07T12:26:22.905Z,70.12
2022-08-07T12:27:02.903Z,70.12
2022-08-07T12:28:08.532Z,70.73
2022-08-07T12:29:02.886Z,70.32
2022-08-07T12:30:02.907Z,70.93
2022-08-07T12:31:02.934Z,70.83
2022-08-07T12:32:04.628Z,70.43
2022-08-07T12:33:02.840Z,70.83
2022-08-07T12:34:04.053Z,71.43
2022-08-07T12:35:02.824Z,71.43
2022-08-07T12:36:02.861Z,71.69
2022-08-07T12:37:08.768Z,71.39
2022-08-07T12:38:10.857Z,71.00
2022-08-07T12:39:02.857Z,71.09
2022-08-07T12:40:02.928Z,70.56
2022-08-07T12:41:02.886Z,69.66
2022-08-07T12:42:02.851Z,69.46
2022-08-07T12:43:02.931Z,69.53
2022-08-07T12:44:06.364Z,69.62
2022-08-07T12:45:04.432Z,68.93
2022-08-07T12:46:02.783Z,68.89
2022-08-07T12:47:02.713Z,67.99
2022-08-07T12:48:02.766Z,67.99
2022-08-07T12:49:10.105Z,67.96
2022-08-07T12:50:04.852Z,67.76
2022-08-07T12:51:17.103Z,67.56
2022-08-07T12:52:13.841Z,67.63
2022-08-07T12:53:05.283Z,67.13
2022-08-07T12:54:36.858Z,67.23
2022-08-07T12:55:05.202Z,66.93
2022-08-07T12:56:04.042Z,67.43
2022-08-07T12:57:07.165Z,66.73
2022-08-07T12:58:02.896Z,65.43